Time;durP1;ratioP1;P1;durP2;ratioP2;P2;SDS_P1;SDS_P2;PMS_P1;PMS_P2;Temp;Humidity;BMP_temperature;BMP_pressure;BME280_temperature;BME280_humidity;BME280_pressure;Samples;Min_cycle;Max_cycle;Signal;HPM_P1;HPM_P2
2023/03/06 00:00:06;;;;;;;4.05;1.30;;;;;;;;;;5118942;27;20050;-58
2023/03/06 00:02:32;;;;;;;3.88;1.15;;;;;;;;;;5101268;27;20043;-57
2023/03/06 00:04:58;;;;;;;4.55;1.05;;;;;;;;;;5136890;27;20039;-58
2023/03/06 00:07:24;;;;;;;5.03;1.35;;;;;;;;;;5118146;27;20043;-57
2023/03/06 00:09:50;;;;;;;6.07;1.27;;;;;;;;;;5135583;27;20035;-58
2023/03/06 00:12:16;;;;;;;4.63;1.33;;;;;;;;;;5118294;27;20046;-57
2023/03/06 00:14:42;;;;;;;6.75;1.35;;;;;;;;;;5094499;28;20096;-58
2023/03/06 00:17:08;;;;;;;6.68;1.23;;;;;;;;;;5126492;27;20471;-57
2023/03/06 00:19:35;;;;;;;4.03;1.33;;;;;;;;;;5136701;27;20432;-58
2023/03/06 00:22:02;;;;;;;6.00;1.10;;;;;;;;;;5131091;27;20034;-61
2023/03/06 00:24:28;;;;;;;5.25;1.10;;;;;;;;;;5118269;27;20047;-57
2023/03/06 00:26:54;;;;;;;6.28;1.33;;;;;;;;;;5136444;27;20046;-57
2023/03/06 00:29:20;;;;;;;5.00;1.45;;;;;;;;;;5101331;27;20039;-57
2023/03/06 00:31:46;;;;;;;2.70;1.80;;;;;;;;;;5136009;27;20043;-57
2023/03/06 00:34:13;;;;;;;2.53;0.85;;;;;;;;;;5116082;27;20039;-58
2023/03/06 00:36:40;;;;;;;4.88;1.15;;;;;;;;;;5115226;28;20495;-56
2023/03/06 00:39:07;;;;;;;2.00;1.00;;;;;;;;;;5115640;28;20043;-57
2023/03/06 00:41:33;;;;;;;4.63;1.10;;;;;;;;;;5112006;27;20049;-59
2023/03/06 00:43:59;;;;;;;6.30;1.30;;;;;;;;;;5135572;27;20042;-56
2023/03/06 00:46:25;;;;;;;6.13;1.50;;;;;;;;;;5135594;27;20096;-57
2023/03/06 00:48:51;;;;;;;3.38;1.08;;;;;;;;;;5135444;27;20056;-57
2023/03/06 00:51:18;;;;;;;6.38;1.23;;;;;;;;;;5086579;27;20061;-57
2023/03/06 00:53:44;;;;;;;2.72;1.20;;;;;;;;;;5135744;27;20046;-57
2023/03/06 00:56:10;;;;;;;6.28;1.02;;;;;;;;;;5135861;27;20039;-58
2023/03/06 00:58:36;;;;;;;6.68;1.10;;;;;;;;;;5136184;27;20035;-57
2023/03/06 01:01:03;;;;;;;5.75;1.88;;;;;;;;;;5116251;27;20043;-57
2023/03/06 01:03:29;;;;;;;2.90;1.00;;;;;;;;;;5116611;27;20075;-57
2023/03/06 01:05:55;;;;;;;2.25;0.90;;;;;;;;;;5117297;27;20047;-56
2023/03/06 01:08:21;;;;;;;7.55;1.10;;;;;;;;;;5117546;27;20043;-57
2023/03/06 01:10:47;;;;;;;4.85;0.93;;;;;;;;;;5135628;27;20043;-57
2023/03/06 01:13:13;;;;;;;3.17;1.00;;;;;;;;;;5135077;27;20486;-57
2023/03/06 01:15:39;;;;;;;4.85;0.80;;;;;;;;;;5099234;27;20042;-58
2023/03/06 01:18:05;;;;;;;4.90;0.82;;;;;;;;;;5134936;27;20100;-57
2023/03/06 01:20:31;;;;;;;5.75;1.95;;;;;;;;;;5116280;27;20039;-57
2023/03/06 01:22:57;;;;;;;3.47;0.90;;;;;;;;;;5135418;27;20031;-59
2023/03/06 01:25:24;;;;;;;8.27;1.23;;;;;;;;;;5135964;27;20046;-57
2023/03/06 01:27:50;;;;;;;2.47;0.60;;;;;;;;;;5134989;27;20364;-57
2023/03/06 01:30:16;;;;;;;3.45;0.90;;;;;;;;;;5117717;27;20043;-57
2023/03/06 01:32:42;;;;;;;3.00;0.88;;;;;;;;;;5116825;27;20050;-57
2023/03/06 01:35:09;;;;;;;6.93;1.30;;;;;;;;;;5134477;27;20046;-57
2023/03/06 01:37:35;;;;;;;3.58;0.75;;;;;;;;;;5116443;27;20144;-57
2023/03/06 01:40:02;;;;;;;3.13;0.98;;;;;;;;;;5117567;27;20088;-57
2023/03/06 01:42:28;;;;;;;2.83;1.77;;;;;;;;;;5114550;28;20040;-57
2023/03/06 01:44:57;;;;;;;2.33;0.88;;;;;;;;;;5114129;28;20043;-57
2023/03/06 01:47:23;;;;;;;5.72;0.95;;;;;;;;;;5125258;27;20031;-57
2023/03/06 01:49:49;;;;;;;1.52;0.90;;;;;;;;;;5133848;27;20038;-57
2023/03/06 01:52:18;;;;;;;5.85;1.38;;;;;;;;;;5116642;27;20035;-57
2023/03/06 01:54:50;;;;;;;6.88;1.10;;;;;;;;;;5133358;27;20378;-59
2023/03/06 01:57:23;;;;;;;8.65;1.50;;;;;;;;;;5134609;27;20043;-57
2023/03/06 01:59:53;;;;;;;6.40;1.67;;;;;;;;;;5115973;27;20043;-57
2023/03/06 02:02:20;;;;;;;3.67;1.20;;;;;;;;;;5134527;27;20556;-57
2023/03/06 02:04:46;;;;;;;6.32;1.00;;;;;;;;;;5132008;27;20042;-57
2023/03/06 02:07:13;;;;;;;5.15;1.30;;;;;;;;;;5135052;28;20035;-57
2023/03/06 02:09:39;;;;;;;6.03;1.15;;;;;;;;;;5133938;28;20056;-57
2023/03/06 02:12:07;;;;;;;3.67;1.08;;;;;;;;;;5134691;28;20081;-51
2023/03/06 02:14:34;;;;;;;3.80;1.55;;;;;;;;;;5133557;28;20041;-57
2023/03/06 02:17:00;;;;;;;5.32;1.63;;;;;;;;;;5115983;28;20039;-57
2023/03/06 02:19:32;;;;;;;8.73;1.92;;;;;;;;;;5115742;28;20043;-59
2023/03/06 02:21:59;;;;;;;9.25;2.35;;;;;;;;;;5134207;28;20065;-55
2023/03/06 02:24:40;;;;;;;6.80;2.10;;;;;;;;;;5134640;28;20074;-57
2023/03/06 02:27:06;;;;;;;2.85;1.42;;;;;;;;;;5134569;28;20035;-57
2023/03/06 02:29:32;;;;;;;3.45;1.30;;;;;;;;;;5116849;28;20078;-56
2023/03/06 02:31:58;;;;;;;2.45;1.02;;;;;;;;;;5134251;28;20043;-53
2023/03/06 02:34:24;;;;;;;4.07;1.35;;;;;;;;;;5113992;28;20070;-57
2023/03/06 02:36:53;;;;;;;3.25;1.75;;;;;;;;;;5113973;28;20035;-57
2023/03/06 02:39:21;;;;;;;2.80;1.08;;;;;;;;;;5113618;28;20043;-56
2023/03/06 02:41:47;;;;;;;3.38;1.20;;;;;;;;;;5113928;28;20044;-57
2023/03/06 02:44:13;;;;;;;2.08;1.20;;;;;;;;;;5124983;28;20043;-57
2023/03/06 02:46:39;;;;;;;5.78;1.63;;;;;;;;;;5134398;28;20184;-57
2023/03/06 02:49:05;;;;;;;2.97;1.80;;;;;;;;;;5134398;28;20043;-57
2023/03/06 02:51:31;;;;;;;4.40;2.60;;;;;;;;;;5134928;28;20043;-57
2023/03/06 02:53:57;;;;;;;4.32;2.08;;;;;;;;;;5132533;28;20037;-57
2023/03/06 02:56:23;;;;;;;3.92;2.70;;;;;;;;;;5106894;28;20068;-57
2023/03/06 02:58:49;;;;;;;5.15;2.40;;;;;;;;;;5117623;28;20062;-57
2023/03/06 03:01:15;;;;;;;7.30;2.53;;;;;;;;;;5117498;28;20112;-57
2023/03/06 03:03:41;;;;;;;4.50;1.70;;;;;;;;;;5130520;27;20419;-57
2023/03/06 03:06:07;;;;;;;3.20;1.50;;;;;;;;;;5138065;27;20112;-55
2023/03/06 03:08:34;;;;;;;1.90;1.00;;;;;;;;;;5138875;27;20110;-57
2023/03/06 03:11:00;;;;;;;2.80;1.63;;;;;;;;;;5137913;27;20045;-56
2023/03/06 03:13:26;;;;;;;2.53;1.05;;;;;;;;;;5137468;27;20039;-57
2023/03/06 03:16:03;;;;;;;2.17;1.10;;;;;;;;;;5119403;27;20371;-57
2023/03/06 03:18:29;;;;;;;4.38;2.08;;;;;;;;;;5120020;27;20421;-58
2023/03/06 03:20:55;;;;;;;6.97;1.90;;;;;;;;;;5137427;27;20188;-57
2023/03/06 03:23:21;;;;;;;4.38;1.50;;;;;;;;;;5137695;27;20039;-56
2023/03/06 03:25:47;;;;;;;3.92;1.60;;;;;;;;;;5138247;27;20047;-57
2023/03/06 03:28:14;;;;;;;5.53;1.88;;;;;;;;;;5136898;27;20432;-52
2023/03/06 03:30:40;;;;;;;4.50;1.92;;;;;;;;;;5138390;27;20419;-53
2023/03/06 03:33:07;;;;;;;6.95;2.42;;;;;;;;;;5117268;27;20043;-57
2023/03/06 03:35:33;;;;;;;5.68;2.65;;;;;;;;;;5137131;27;20061;-58
2023/03/06 03:37:59;;;;;;;5.50;3.42;;;;;;;;;;5137646;27;20047;-57
2023/03/06 03:40:25;;;;;;;6.18;1.98;;;;;;;;;;5138017;27;20096;-57
2023/03/06 03:42:51;;;;;;;8.32;1.38;;;;;;;;;;5137879;27;20074;-57
2023/03/06 03:45:18;;;;;;;3.65;0.90;;;;;;;;;;5118282;27;20047;-57
2023/03/06 03:47:44;;;;;;;1.85;0.70;;;;;;;;;;5137215;27;20125;-57
2023/03/06 03:50:10;;;;;;;1.15;0.65;;;;;;;;;;5133216;27;20379;-57
2023/03/06 03:52:36;;;;;;;0.95;0.60;;;;;;;;;;5122942;27;20210;-56
2023/03/06 03:55:03;;;;;;;1.30;0.80;;;;;;;;;;5136344;27;20042;-57
2023/03/06 03:57:29;;;;;;;1.42;0.63;;;;;;;;;;5137022;27;20092;-57
2023/03/06 03:59:55;;;;;;;3.45;0.90;;;;;;;;;;5130554;27;20035;-57
2023/03/06 04:02:21;;;;;;;1.60;0.80;;;;;;;;;;5135674;27;20352;-57
2023/03/06 04:04:47;;;;;;;1.73;0.77;;;;;;;;;;5136877;27;20122;-57
2023/03/06 04:07:14;;;;;;;1.45;0.80;;;;;;;;;;5136025;27;20432;-57
2023/03/06 04:09:40;;;;;;;1.10;0.50;;;;;;;;;;5118474;27;20039;-55
2023/03/06 04:12:07;;;;;;;1.83;0.68;;;;;;;;;;5118978;27;20066;-57
2023/03/06 04:14:33;;;;;;;2.20;0.70;;;;;;;;;;5136633;27;20092;-57
2023/03/06 04:16:59;;;;;;;1.60;0.75;;;;;;;;;;5136636;27;20043;-57
2023/03/06 04:19:25;;;;;;;3.55;0.90;;;;;;;;;;5137795;27;20061;-57
2023/03/06 04:21:51;;;;;;;1.42;0.70;;;;;;;;;;5136073;27;20043;-56
2023/03/06 04:24:17;;;;;;;3.60;0.80;;;;;;;;;;5118761;27;20035;-57
2023/03/06 04:26:43;;;;;;;2.95;1.10;;;;;;;;;;5118110;27;20043;-57
2023/03/06 04:29:09;;;;;;;4.38;1.08;;;;;;;;;;5115718;27;20043;-56
2023/03/06 04:31:35;;;;;;;3.38;1.10;;;;;;;;;;5116379;28;20044;-58
2023/03/06 04:34:01;;;;;;;1.92;1.00;;;;;;;;;;5121780;27;20390;-55
2023/03/06 04:36:29;;;;;;;3.35;1.00;;;;;;;;;;5136273;27;20046;-57
2023/03/06 04:38:55;;;;;;;3.38;1.05;;;;;;;;;;5136238;27;20049;-57
2023/03/06 04:41:21;;;;;;;4.63;1.15;;;;;;;;;;5130899;27;20027;-57
2023/03/06 04:43:48;;;;;;;1.75;0.98;;;;;;;;;;5116104;28;20443;-56
2023/03/06 04:46:14;;;;;;;2.30;1.00;;;;;;;;;;5115533;28;20051;-57
2023/03/06 04:48:40;;;;;;;1.63;0.98;;;;;;;;;;5115548;28;20047;-59
2023/03/06 04:51:06;;;;;;;1.88;0.93;;;;;;;;;;5116238;27;20441;-57
2023/03/06 04:53:32;;;;;;;2.17;0.85;;;;;;;;;;5135928;27;20126;-57
2023/03/06 04:55:59;;;;;;;2.65;1.00;;;;;;;;;;5135823;27;20126;-57
2023/03/06 04:58:25;;;;;;;2.58;0.90;;;;;;;;;;5135869;27;20075;-57
2023/03/06 05:00:51;;;;;;;4.00;0.80;;;;;;;;;;5118072;27;20078;-56
2023/03/06 05:03:17;;;;;;;2.08;0.98;;;;;;;;;;5120912;27;20078;-57
2023/03/06 05:05:43;;;;;;;2.22;1.35;;;;;;;;;;5136288;27;20041;-57
2023/03/06 05:08:14;;;;;;;1.75;0.75;;;;;;;;;;5135020;27;20039;-57
2023/03/06 05:10:40;;;;;;;3.08;0.80;;;;;;;;;;5135666;27;20038;-57
2023/03/06 05:13:06;;;;;;;1.48;0.77;;;;;;;;;;5134813;27;20051;-57
2023/03/06 05:15:32;;;;;;;2.22;1.02;;;;;;;;;;5135335;27;20035;-57
2023/03/06 05:17:58;;;;;;;4.25;1.05;;;;;;;;;;5134372;27;20061;-57
2023/03/06 05:20:24;;;;;;;1.45;0.80;;;;;;;;;;5131776;27;20505;-57
2023/03/06 05:22:50;;;;;;;2.15;1.00;;;;;;;;;;5117166;27;20046;-57
2023/03/06 05:25:17;;;;;;;1.45;0.80;;;;;;;;;;5117364;27;20039;-57
2023/03/06 05:27:43;;;;;;;2.78;1.40;;;;;;;;;;5111081;27;20137;-57
2023/03/06 05:30:11;;;;;;;4.95;1.00;;;;;;;;;;5116600;27;20043;-57
2023/03/06 05:32:37;;;;;;;1.73;0.63;;;;;;;;;;5135288;27;20067;-57
2023/03/06 05:35:03;;;;;;;1.55;0.80;;;;;;;;;;5132189;27;20114;-57
2023/03/06 05:37:29;;;;;;;2.45;1.25;;;;;;;;;;5133497;27;20035;-57
2023/03/06 05:39:56;;;;;;;2.10;1.08;;;;;;;;;;5135653;27;20074;-58
2023/03/06 05:42:22;;;;;;;1.52;0.70;;;;;;;;;;5135127;27;20142;-58
2023/03/06 05:44:48;;;;;;;2.65;1.10;;;;;;;;;;5115012;27;20040;-57
2023/03/06 05:47:14;;;;;;;1.42;0.85;;;;;;;;;;5115344;28;20031;-57
2023/03/06 05:49:40;;;;;;;2.03;0.90;;;;;;;;;;5093364;27;20444;-57
2023/03/06 05:52:07;;;;;;;2.40;0.90;;;;;;;;;;5134240;27;20043;-57
2023/03/06 05:54:34;;;;;;;3.70;1.00;;;;;;;;;;5134191;27;20031;-57
2023/03/06 05:57:00;;;;;;;2.60;1.10;;;;;;;;;;5134898;27;20050;-56
2023/03/06 05:59:27;;;;;;;3.25;1.15;;;;;;;;;;5135444;27;20043;-57
2023/03/06 06:01:56;;;;;;;1.83;1.00;;;;;;;;;;5134009;27;20078;-57
2023/03/06 06:04:24;;;;;;;2.60;1.27;;;;;;;;;;5115194;27;20489;-57
2023/03/06 06:06:51;;;;;;;5.63;1.17;;;;;;;;;;5134785;27;20043;-57
2023/03/06 06:09:17;;;;;;;7.60;1.15;;;;;;;;;;5120115;28;20035;-57
2023/03/06 06:11:43;;;;;;;2.63;1.27;;;;;;;;;;5116234;28;20467;-56
2023/03/06 06:14:09;;;;;;;3.63;1.83;;;;;;;;;;5134593;28;20039;-57
2023/03/06 06:16:35;;;;;;;5.00;1.67;;;;;;;;;;5134153;28;20039;-56
2023/03/06 06:19:01;;;;;;;3.67;1.50;;;;;;;;;;5125453;28;20124;-57
2023/03/06 06:21:28;;;;;;;3.78;1.60;;;;;;;;;;5122300;28;20047;-57
2023/03/06 06:23:54;;;;;;;2.60;1.38;;;;;;;;;;5132751;28;20482;-57
2023/03/06 06:26:20;;;;;;;3.95;1.23;;;;;;;;;;5135168;28;20035;-57
2023/03/06 06:28:46;;;;;;;4.40;1.75;;;;;;;;;;5134068;28;20035;-57
2023/03/06 06:31:12;;;;;;;5.28;2.30;;;;;;;;;;5123791;27;20040;-57
2023/03/06 06:33:38;;;;;;;5.82;3.17;;;;;;;;;;5135141;27;20080;-57
2023/03/06 06:36:04;;;;;;;3.38;1.98;;;;;;;;;;5138567;27;20031;-57
2023/03/06 06:38:30;;;;;;;4.05;2.17;;;;;;;;;;5138196;27;20050;-57
2023/03/06 06:40:56;;;;;;;3.70;2.13;;;;;;;;;;5138078;27;20035;-57
2023/03/06 06:43:22;;;;;;;3.75;2.20;;;;;;;;;;5139326;27;20054;-57
2023/03/06 06:45:48;;;;;;;6.38;2.45;;;;;;;;;;5138404;27;20467;-57
2023/03/06 06:48:15;;;;;;;3.72;1.95;;;;;;;;;;5138374;27;20039;-51
2023/03/06 06:50:41;;;;;;;5.97;2.35;;;;;;;;;;5120540;27;20047;-57
2023/03/06 06:53:07;;;;;;;5.82;2.80;;;;;;;;;;5138325;27;20058;-57
2023/03/06 06:55:33;;;;;;;5.90;2.30;;;;;;;;;;5138179;27;20081;-57
2023/03/06 06:57:59;;;;;;;4.20;2.63;;;;;;;;;;5138021;27;20467;-57
2023/03/06 07:00:25;;;;;;;3.88;2.25;;;;;;;;;;5108119;28;20075;-50
2023/03/06 07:02:51;;;;;;;4.97;2.45;;;;;;;;;;5125114;27;20074;-56
2023/03/06 07:05:18;;;;;;;4.38;2.50;;;;;;;;;;5119991;27;20131;-57
2023/03/06 07:07:44;;;;;;;6.50;2.70;;;;;;;;;;5131266;27;20039;-57
2023/03/06 07:10:12;;;;;;;5.75;2.60;;;;;;;;;;5135456;27;20031;-57
2023/03/06 07:12:38;;;;;;;6.65;2.63;;;;;;;;;;5126441;27;20049;-57
2023/03/06 07:15:05;;;;;;;4.95;2.70;;;;;;;;;;5137543;27;20420;-57
2023/03/06 07:17:32;;;;;;;5.18;2.70;;;;;;;;;;5119027;27;20043;-57
2023/03/06 07:19:58;;;;;;;4.32;2.25;;;;;;;;;;5118514;27;20039;-57
2023/03/06 07:22:24;;;;;;;4.43;2.13;;;;;;;;;;5111858;27;20079;-57
2023/03/06 07:24:50;;;;;;;5.93;2.40;;;;;;;;;;5135754;27;20374;-57
2023/03/06 07:27:17;;;;;;;4.53;2.47;;;;;;;;;;5137134;27;20475;-57
2023/03/06 07:29:43;;;;;;;5.82;2.95;;;;;;;;;;5137303;27;20467;-57
2023/03/06 07:32:10;;;;;;;5.22;2.10;;;;;;;;;;5137123;27;20100;-57
2023/03/06 07:34:36;;;;;;;4.88;2.45;;;;;;;;;;5118434;27;20036;-57
2023/03/06 07:37:02;;;;;;;5.72;1.80;;;;;;;;;;5118669;27;20046;-57
2023/03/06 07:39:29;;;;;;;4.07;1.70;;;;;;;;;;5136982;27;20046;-57
2023/03/06 07:41:56;;;;;;;5.07;1.80;;;;;;;;;;5120323;27;20126;-57
2023/03/06 07:44:22;;;;;;;3.35;1.70;;;;;;;;;;5098760;28;20054;-57
2023/03/06 07:46:48;;;;;;;3.28;1.40;;;;;;;;;;5119154;27;20495;-57
2023/03/06 07:49:14;;;;;;;2.75;1.35;;;;;;;;;;5116371;27;20437;-57
2023/03/06 07:51:40;;;;;;;3.38;1.27;;;;;;;;;;5136498;27;20478;-57
2023/03/06 07:54:07;;;;;;;3.72;1.70;;;;;;;;;;5136574;27;20550;-57
2023/03/06 07:56:35;;;;;;;4.15;1.58;;;;;;;;;;5137325;27;20096;-57
2023/03/06 07:59:02;;;;;;;3.75;1.50;;;;;;;;;;5102675;27;20078;-55
2023/03/06 08:01:28;;;;;;;4.10;1.77;;;;;;;;;;5135644;27;20043;-57
2023/03/06 08:03:54;;;;;;;3.58;2.13;;;;;;;;;;5131449;27;20039;-57
2023/03/06 08:06:25;;;;;;;3.33;1.88;;;;;;;;;;5127198;27;20110;-57
2023/03/06 08:08:52;;;;;;;4.20;2.10;;;;;;;;;;5136770;27;20508;-57
2023/03/06 08:11:19;;;;;;;3.70;1.90;;;;;;;;;;5110090;27;20376;-57
2023/03/06 08:13:47;;;;;;;3.72;1.40;;;;;;;;;;5135739;27;20487;-56
2023/03/06 08:16:14;;;;;;;2.67;1.00;;;;;;;;;;5130034;27;20471;-56
2023/03/06 08:18:41;;;;;;;2.65;1.30;;;;;;;;;;5132889;27;20047;-58
2023/03/06 08:21:08;;;;;;;2.30;1.20;;;;;;;;;;5123711;27;20514;-56
2023/03/06 08:23:34;;;;;;;2.67;1.20;;;;;;;;;;5096598;28;20063;-58
2023/03/06 08:26:02;;;;;;;1.58;0.80;;;;;;;;;;5134664;27;20031;-55
2023/03/06 08:28:28;;;;;;;1.55;0.75;;;;;;;;;;5135495;27;20050;-57
2023/03/06 08:30:55;;;;;;;3.35;1.20;;;;;;;;;;5117326;27;20035;-54
2023/03/06 08:33:21;;;;;;;4.43;1.30;;;;;;;;;;5135342;27;20050;-56
2023/03/06 08:35:47;;;;;;;3.65;1.40;;;;;;;;;;5135267;27;20035;-56
2023/03/06 08:38:14;;;;;;;3.40;1.50;;;;;;;;;;5135516;27;20088;-56
2023/03/06 08:40:40;;;;;;;3.83;1.35;;;;;;;;;;5130930;27;20397;-56
2023/03/06 08:43:08;;;;;;;3.58;1.40;;;;;;;;;;5099837;27;20070;-56
2023/03/06 08:45:35;;;;;;;4.47;1.10;;;;;;;;;;5116761;27;20035;-56
2023/03/06 08:48:01;;;;;;;3.55;1.45;;;;;;;;;;5109392;27;20391;-58
2023/03/06 08:50:27;;;;;;;5.25;1.27;;;;;;;;;;5116960;27;20035;-54
2023/03/06 08:52:53;;;;;;;2.72;0.85;;;;;;;;;;5095357;27;20043;-59
2023/03/06 08:55:19;;;;;;;5.10;1.17;;;;;;;;;;5129764;27;20449;-57
2023/03/06 08:57:45;;;;;;;4.82;1.08;;;;;;;;;;5129545;27;20043;-57
2023/03/06 09:00:12;;;;;;;3.70;1.00;;;;;;;;;;5134464;27;20500;-68
2023/03/06 09:02:38;;;;;;;7.95;2.78;;;;;;;;;;5116586;27;20046;-57
2023/03/06 09:05:06;;;;;;;7.18;3.40;;;;;;;;;;5133496;27;20035;-57
2023/03/06 09:07:32;;;;;;;12.77;4.50;;;;;;;;;;5132950;27;20043;-55
2023/03/06 09:09:58;;;;;;;16.35;6.05;;;;;;;;;;5133477;27;20039;-57
2023/03/06 09:12:24;;;;;;;14.20;5.82;;;;;;;;;;5114169;27;20054;-58
2023/03/06 09:14:50;;;;;;;11.38;4.00;;;;;;;;;;5133241;27;20031;-61
2023/03/06 09:17:16;;;;;;;13.30;5.60;;;;;;;;;;5132401;27;20453;-57
2023/03/06 09:19:42;;;;;;;9.95;3.63;;;;;;;;;;5115319;27;20104;-58
2023/03/06 09:22:08;;;;;;;4.50;1.77;;;;;;;;;;5133662;27;20047;-55
2023/03/06 09:24:34;;;;;;;5.10;1.20;;;;;;;;;;5114951;27;20046;-57
2023/03/06 09:27:00;;;;;;;2.67;0.90;;;;;;;;;;5117388;22;20044;-57
2023/03/06 09:29:51;;;;;;;2.15;0.77;;;6.10;99.90;;;;;;5075328;22;1080635;-60
2023/03/06 09:32:17;;;;;;;2.65;0.88;;;;;;;;;;5056262;28;20114;-56
2023/03/06 09:34:43;;;;;;;6.50;1.73;;;;;;;;;;5052283;28;20044;-59
2023/03/06 09:37:09;;;;;;;5.88;0.85;;;;;;;;;;5052243;28;20041;-55
2023/03/06 09:39:36;;;;;;;5.75;0.85;;;;;;;;;;5052198;28;20037;-56
2023/03/06 09:42:02;;;;;;;6.22;1.15;;;;;;;;;;5052180;28;20036;-58
2023/03/06 09:44:33;;;;;;;1.98;0.52;;;;;;;;;;5051896;28;20041;-55
2023/03/06 09:47:03;;;;;;;6.90;0.95;;;;;;;;;;5070013;28;20085;-56
2023/03/06 09:50:13;;;;;;;2.38;0.50;;;7.00;99.90;;;;;;5053995;28;20029;-56
2023/03/06 09:52:46;;;;;;;2.03;0.70;;;;;;;;;;5049720;28;20126;-56
2023/03/06 09:55:14;;;;;;;5.88;1.15;;;;;;;;;;5071852;28;20037;-58
2023/03/06 09:58:00;;;;;;;10.10;1.08;;;;;;;;;;5072212;28;20116;-57
2023/03/06 10:00:38;;;;;;;2.45;0.60;;;;;;;;;;5050414;28;20354;-57
2023/03/06 10:03:13;;;;;;;5.25;0.50;;;;;;;;;;5044487;28;20500;-50
2023/03/06 10:05:40;;;;;;;1.67;0.73;;;;;;;;;;5071788;28;20043;-58
2023/03/06 10:08:22;;;;;;;4.40;0.68;;;;;;;;;;5054213;28;20396;-56
2023/03/06 10:10:58;;;;;;;5.00;0.70;;;;;;;;;;5038967;28;20135;-57
2023/03/06 10:13:27;;;;;;;2.33;0.50;;;;;;;;;;5063988;28;20059;-56
2023/03/06 10:15:58;;;;;;;1.77;0.50;;;;;;;;;;5069319;28;20037;-56
2023/03/06 10:18:24;;;;;;;2.15;0.50;;;;;;;;;;5052586;28;20478;-57
2023/03/06 10:20:58;;;;;;;2.78;0.50;;;;;;;;;;5068231;28;20090;-60
2023/03/06 10:23:32;;;;;;;1.60;0.43;;;;;;;;;;5071628;28;20040;-57
2023/03/06 10:26:00;;;;;;;2.53;0.50;;;;;;;;;;5070166;28;20044;-56
2023/03/06 10:28:26;;;;;;;3.85;0.45;;;;;;;;;;5070954;28;20043;-58
2023/03/06 10:31:06;;;;;;;2.83;0.52;;;;;;;;;;5071664;28;20135;-59
2023/03/06 10:33:32;;;;;;;4.95;0.60;;;;;;;;;;5053635;28;20383;-58
2023/03/06 10:35:58;;;;;;;5.25;0.60;;;;;;;;;;5053512;28;20048;-57
2023/03/06 10:38:36;;;;;;;6.68;0.68;;;;;;;;;;5071261;28;20048;-57
2023/03/06 10:41:11;;;;;;;4.13;0.40;;;;;;;;;;5071688;28;20127;-58
2023/03/06 10:43:38;;;;;;;3.92;0.70;;;;;;;;;;5071355;28;20131;-57
2023/03/06 10:46:05;;;;;;;1.83;0.52;;;;;;;;;;5067683;28;20098;-59
2023/03/06 10:48:34;;;;;;;9.35;1.10;;;;;;;;;;5070208;28;20051;-57
2023/03/06 10:51:18;;;;;;;4.43;0.50;;;;;;;;;;5055291;28;20047;-57
2023/03/06 10:53:54;;;;;;;1.55;0.40;;;;;;;;;;5073395;28;20099;-58
2023/03/06 10:56:28;;;;;;;3.00;0.40;;;;;;;;;;5055283;28;20041;-57
2023/03/06 10:59:12;;;;;;;0.75;0.30;;;7.00;99.90;;;;;;5073220;28;20159;-54
2023/03/06 11:01:43;;;;;;;5.00;0.70;;;;;;;;;;5056118;28;20055;-58
2023/03/06 11:04:28;;;;;;;3.72;0.32;;;;;;;;;;5026834;28;20037;-55
2023/03/06 11:07:11;;;;;;;3.55;0.55;;;;;;;;;;5053079;28;20049;-52
2023/03/06 11:09:38;;;;;;;4.63;0.90;;;;;;;;;;5052889;28;20056;-57
2023/03/06 11:12:19;;;;;;;3.97;0.90;;;;;;;;;;5053025;28;20051;-59
2023/03/06 11:14:45;;;;;;;1.73;0.30;;;;;;;;;;5052891;28;20040;-54
2023/03/06 11:17:31;;;;;;;2.60;0.73;;;;;;;;;;5063503;28;20530;-56
2023/03/06 11:20:17;;;;;;;4.43;0.60;;;;;;;;;;5077009;28;20040;-55
2023/03/06 11:22:46;;;;;;;3.28;0.40;;;;;;;;;;5076354;28;20044;-57
2023/03/06 11:25:14;;;;;;;2.63;0.40;;;;;;;;;;5075110;28;20371;-57
2023/03/06 11:27:43;;;;;;;4.90;0.60;;;;;;;;;;5075004;28;20079;-58
2023/03/06 11:30:27;;;;;;;1.35;0.45;;;;;;;;;;5054537;28;20047;-57
2023/03/06 11:32:57;;;;;;;1.25;0.40;;;;;;;;;;5075399;28;20553;-57
2023/03/06 11:35:33;;;;;;;2.30;0.35;;;;;;;;;;5076295;28;20047;-57
2023/03/06 11:38:05;;;;;;;4.10;0.40;;;;;;;;;;5042102;28;20041;-58
2023/03/06 11:40:36;;;;;;;2.75;0.30;;;;;;;;;;5058914;28;20051;-57
2023/03/06 11:43:13;;;;;;;2.03;0.30;;;;;;;;;;5076540;28;20446;-57
2023/03/06 11:45:49;;;;;;;2.25;0.30;;;;;;;;;;5042721;28;20131;-56
2023/03/06 11:48:16;;;;;;;1.52;0.57;;;;;;;;;;5076098;28;20485;-56
2023/03/06 11:50:48;;;;;;;1.52;0.40;;;;;;;;;;5076126;28;20055;-57
2023/03/06 11:53:40;;;;;;;3.67;0.40;;;;;;;;;;5075970;28;20051;-57
2023/03/06 11:56:18;;;;;;;2.72;0.38;;;;;;;;;;5073893;28;20207;-56
2023/03/06 11:58:44;;;;;;;1.83;0.47;;;;;;;;;;5076481;28;20082;-57
2023/03/06 12:01:23;;;;;;;0.95;0.30;;;;;;;;;;5075874;28;20043;-57
2023/03/06 12:04:01;;;;;;;0.55;0.45;;;;;;;;;;5058141;28;20483;-57
2023/03/06 12:06:42;;;;;;;1.13;0.47;;;;;;;;;;5075454;28;20048;-56
2023/03/06 12:09:19;;;;;;;0.93;0.30;;;;;;;;;;5075729;28;20358;-57
2023/03/06 12:11:45;;;;;;;2.30;0.30;;;;;;;;;;5042230;28;20044;-59
2023/03/06 12:14:24;;;;;;;2.17;0.30;;;;;;;;;;5076088;28;20123;-57
2023/03/06 12:16:57;;;;;;;4.18;0.47;;;;;;;;;;5076051;28;20044;-57
2023/03/06 12:19:23;;;;;;;3.53;0.68;;;;;;;;;;5057597;28;20048;-54
2023/03/06 12:21:56;;;;;;;3.70;0.80;;;;;;;;;;5058589;28;20040;-57
2023/03/06 12:24:41;;;;;;;4.60;0.80;;;;;;;;;;5057853;28;20041;-56
2023/03/06 12:27:27;;;;;;;3.38;0.70;;;;;;;;;;5075078;28;20045;-57
2023/03/06 12:30:44;;;;;;;1.70;0.50;;;8.90;99.90;;;;;;5045377;28;20080;-58
2023/03/06 12:33:19;;;;;;;1.92;0.40;;;;;;;;;;4977741;28;20050;-58
2023/03/06 12:35:45;;;;;;;3.70;1.13;;;;;;;;;;4993471;28;20479;-57
2023/03/06 12:38:20;;;;;;;1.77;0.32;;;;;;;;;;4993563;28;20053;-58
2023/03/06 12:41:05;;;;;;;1.80;0.35;;;;;;;;;;4993474;28;20052;-56
2023/03/06 12:43:46;;;;;;;1.33;0.55;;;;;;;;;;5003732;28;20049;-57
2023/03/06 12:46:14;;;;;;;0.50;0.28;;;;;;;;;;4997755;28;20046;-55
2023/03/06 12:48:43;;;;;;;1.58;0.35;;;;;;;;;;4996633;28;20058;-55
2023/03/06 12:51:11;;;;;;;2.80;0.60;;;;;;;;;;5002448;28;20054;-56
2023/03/06 12:53:37;;;;;;;1.10;0.40;;;;;;;;;;4993243;28;20054;-56
2023/03/06 12:56:03;;;;;;;4.25;0.63;;;;;;;;;;4977085;28;20054;-57
2023/03/06 12:58:29;;;;;;;3.65;0.90;;;;;;;;;;4977178;28;20066;-57
2023/03/06 13:01:03;;;;;;;2.28;0.85;;;;;;;;;;4993117;28;20522;-57
2023/03/06 13:03:52;;;;;;;5.88;0.63;;;;;;;;;;4993010;28;20089;-57
2023/03/06 13:06:36;;;;;;;5.00;0.80;;;8.70;99.90;;;;;;4938705;29;20050;-57
2023/03/06 13:09:08;;;;;;;4.80;1.13;;;;;;;;;;4956430;28;20193;-58
2023/03/06 13:11:53;;;;;;;3.17;0.82;;;;;;;;;;4977121;28;20050;-56
2023/03/06 13:14:23;;;;;;;4.38;0.60;;;;;;;;;;4992868;28;20118;-57
2023/03/06 13:16:50;;;;;;;1.75;0.50;;;;;;;;;;4977043;28;20046;-59
2023/03/06 13:19:23;;;;;;;4.65;0.70;;;;;;;;;;4976628;28;20097;-58
2023/03/06 13:21:55;;;;;;;1.63;0.68;;;;;;;;;;4992856;28;20046;-57
2023/03/06 13:24:31;;;;;;;1.02;0.40;;;;;;;;;;4992884;28;20454;-57
2023/03/06 13:27:08;;;;;;;2.63;0.43;;;;;;;;;;4993571;28;20064;-58
2023/03/06 13:29:37;;;;;;;1.45;0.45;;;;;;;;;;4992621;28;20141;-57
2023/03/06 13:32:03;;;;;;;1.73;0.60;;;;;;;;;;4992688;28;20065;-57
2023/03/06 13:34:32;;;;;;;2.58;0.75;;;;;;;;;;4992474;28;20078;-57
2023/03/06 13:37:13;;;;;;;3.28;1.02;;;;;;;;;;4976695;28;20483;-58
2023/03/06 13:39:54;;;;;;;3.60;1.08;;;;;;;;;;4991930;28;20572;-57
2023/03/06 13:42:28;;;;;;;5.13;1.05;;;;;;;;;;4998957;28;20129;-56
2023/03/06 13:44:54;;;;;;;5.50;0.80;;;;;;;;;;5055659;28;20040;-59
2023/03/06 13:47:27;;;;;;;4.15;0.80;;;;;;;;;;5073888;28;20040;-58
2023/03/06 13:49:54;;;;;;;1.65;0.60;;;;;;;;;;5056552;28;20036;-57
2023/03/06 13:52:22;;;;;;;2.13;0.60;;;;;;;;;;5073879;28;20036;-56
2023/03/06 13:54:48;;;;;;;3.35;0.90;;;;;;;;;;5074300;28;20445;-58
2023/03/06 13:57:35;;;;;;;1.30;0.80;;;7.70;99.90;;;;;;5073772;28;20046;-56
2023/03/06 14:00:17;;;;;;;3.30;0.98;;;;;;;;;;5057493;28;20051;-55
2023/03/06 14:03:05;;;;;;;4.82;1.13;;;;;;;;;;5036005;28;20049;-57
2023/03/06 14:05:48;;;;;;;3.22;1.10;;;;;;;;;;5035741;28;20032;-56
2023/03/06 14:08:18;;;;;;;3.13;0.90;;;;;;;;;;5035611;28;20436;-57
2023/03/06 14:10:45;;;;;;;1.25;0.63;;;;;;;;;;5053590;28;20041;-57
2023/03/06 14:13:25;;;;;;;3.25;0.75;;;;;;;;;;5053545;28;20043;-57
2023/03/06 14:15:52;;;;;;;6.57;1.45;;;;;;;;;;5053728;28;20513;-58
2023/03/06 14:18:20;;;;;;;4.40;1.63;;;;;;;;;;5054070;28;20041;-60
2023/03/06 14:21:10;;;;;;;3.05;1.65;;;7.60;99.90;;;;;;5036781;28;20044;-58
2023/03/06 14:23:41;;;;;;;3.00;0.95;;;;;;;;;;5035751;28;20040;-60
2023/03/06 14:26:14;;;;;;;;;;;7.40;99.90;;;;;;5054482;28;20053;-60
2023/03/06 14:28:40;;;;;;;3.78;1.48;;;;;;;;;;5053161;28;19960;-58
2023/03/06 14:31:09;;;;;;;3.78;1.40;;;;;;;;;;5018544;28;20057;-57
2023/03/06 14:33:43;;;;;;;3.85;1.25;;;;;;;;;;5053039;28;20519;-57
2023/03/06 14:36:14;;;;;;;2.20;0.88;;;;;;;;;;5035245;28;20499;-60
2023/03/06 14:38:45;;;;;;;2.53;1.10;;;;;;;;;;5053896;28;20048;-57
2023/03/06 14:41:11;;;;;;;5.00;1.60;;;;;;;;;;5053307;28;20500;-56
2023/03/06 14:43:37;;;;;;;6.50;1.20;;;;;;;;;;5035098;28;20467;-58
2023/03/06 14:46:05;;;;;;;2.42;1.20;;;;;;;;;;5035804;28;20424;-57
2023/03/06 14:48:38;;;;;;;31.33;2.13;;;;;;;;;;5052925;28;20499;-57
2023/03/06 14:51:04;;;;;;;10.82;1.35;;;;;;;;;;5054679;28;20053;-57